sensor_id;sensor_type;location;lat;lon;timestamp;temperature;humidity
12426;DHT22;6277;49.824;9.562;2023-11-19T00:00:50;11.00;86.40
12426;DHT22;6277;49.824;9.562;2023-11-19T00:03:16;11.10;86.50
12426;DHT22;6277;49.824;9.562;2023-11-19T00:05:43;11.10;86.50
12426;DHT22;6277;49.824;9.562;2023-11-19T00:08:09;11.10;86.50
12426;DHT22;6277;49.824;9.562;2023-11-19T00:10:35;11.10;86.40
12426;DHT22;6277;49.824;9.562;2023-11-19T00:13:00;11.10;86.50
12426;DHT22;6277;49.824;9.562;2023-11-19T00:15:28;11.10;86.40
12426;DHT22;6277;49.824;9.562;2023-11-19T00:17:54;11.10;86.50
12426;DHT22;6277;49.824;9.562;2023-11-19T00:20:20;11.20;86.50
12426;DHT22;6277;49.824;9.562;2023-11-19T00:22:48;11.20;86.50
12426;DHT22;6277;49.824;9.562;2023-11-19T00:25:17;11.20;86.50
12426;DHT22;6277;49.824;9.562;2023-11-19T00:27:42;11.20;86.30
12426;DHT22;6277;49.824;9.562;2023-11-19T00:30:11;11.20;86.30
12426;DHT22;6277;49.824;9.562;2023-11-19T00:32:36;11.20;86.40
12426;DHT22;6277;49.824;9.562;2023-11-19T00:35:04;11.20;86.50
12426;DHT22;6277;49.824;9.562;2023-11-19T00:37:30;11.10;86.50
12426;DHT22;6277;49.824;9.562;2023-11-19T00:39:55;11.10;86.60
12426;DHT22;6277;49.824;9.562;2023-11-19T00:42:22;11.20;86.60
12426;DHT22;6277;49.824;9.562;2023-11-19T00:44:48;11.20;86.70
12426;DHT22;6277;49.824;9.562;2023-11-19T00:47:14;11.20;86.70
12426;DHT22;6277;49.824;9.562;2023-11-19T00:49:39;11.20;86.70
12426;DHT22;6277;49.824;9.562;2023-11-19T00:52:05;11.20;86.70
12426;DHT22;6277;49.824;9.562;2023-11-19T00:54:32;11.20;86.60
12426;DHT22;6277;49.824;9.562;2023-11-19T00:56:57;11.20;86.50
12426;DHT22;6277;49.824;9.562;2023-11-19T00:59:23;11.20;86.50
12426;DHT22;6277;49.824;9.562;2023-11-19T01:01:48;11.20;86.50
12426;DHT22;6277;49.824;9.562;2023-11-19T01:04:14;11.20;86.50
12426;DHT22;6277;49.824;9.562;2023-11-19T01:06:40;11.20;86.60
12426;DHT22;6277;49.824;9.562;2023-11-19T01:09:08;11.20;86.60
12426;DHT22;6277;49.824;9.562;2023-11-19T01:11:34;11.20;86.70
12426;DHT22;6277;49.824;9.562;2023-11-19T01:14:00;11.20;86.70
12426;DHT22;6277;49.824;9.562;2023-11-19T01:16:26;11.20;86.70
12426;DHT22;6277;49.824;9.562;2023-11-19T01:18:52;11.30;86.70
12426;DHT22;6277;49.824;9.562;2023-11-19T01:21:17;11.30;86.80
12426;DHT22;6277;49.824;9.562;2023-11-19T01:23:43;11.30;86.70
12426;DHT22;6277;49.824;9.562;2023-11-19T01:26:10;11.30;86.60
12426;DHT22;6277;49.824;9.562;2023-11-19T01:28:36;11.30;86.60
12426;DHT22;6277;49.824;9.562;2023-11-19T01:31:02;11.20;86.60
12426;DHT22;6277;49.824;9.562;2023-11-19T01:33:28;11.20;86.80
12426;DHT22;6277;49.824;9.562;2023-11-19T01:35:55;11.20;86.90
12426;DHT22;6277;49.824;9.562;2023-11-19T01:38:21;11.20;87.00
12426;DHT22;6277;49.824;9.562;2023-11-19T01:40:46;11.30;87.00
12426;DHT22;6277;49.824;9.562;2023-11-19T01:43:12;11.30;87.00
12426;DHT22;6277;49.824;9.562;2023-11-19T01:45:39;11.30;87.00
12426;DHT22;6277;49.824;9.562;2023-11-19T01:48:05;11.30;87.00
12426;DHT22;6277;49.824;9.562;2023-11-19T01:50:31;11.40;86.90
12426;DHT22;6277;49.824;9.562;2023-11-19T01:52:58;11.40;86.80
12426;DHT22;6277;49.824;9.562;2023-11-19T01:55:25;11.40;86.80
12426;DHT22;6277;49.824;9.562;2023-11-19T01:57:53;11.40;86.90
12426;DHT22;6277;49.824;9.562;2023-11-19T02:00:21;11.40;86.90
12426;DHT22;6277;49.824;9.562;2023-11-19T02:02:47;11.40;87.00
12426;DHT22;6277;49.824;9.562;2023-11-19T02:05:13;11.40;87.10
12426;DHT22;6277;49.824;9.562;2023-11-19T02:07:39;11.40;87.10
12426;DHT22;6277;49.824;9.562;2023-11-19T02:10:06;11.40;87.20
12426;DHT22;6277;49.824;9.562;2023-11-19T02:12:38;11.40;87.10
12426;DHT22;6277;49.824;9.562;2023-11-19T02:15:04;11.50;87.20
12426;DHT22;6277;49.824;9.562;2023-11-19T02:17:30;11.50;87.10
12426;DHT22;6277;49.824;9.562;2023-11-19T02:20:00;11.50;87.00
12426;DHT22;6277;49.824;9.562;2023-11-19T02:22:25;11.50;86.90
12426;DHT22;6277;49.824;9.562;2023-11-19T02:24:57;11.50;86.90
12426;DHT22;6277;49.824;9.562;2023-11-19T02:30:22;11.50;86.60
12426;DHT22;6277;49.824;9.562;2023-11-19T02:32:59;11.50;86.80
12426;DHT22;6277;49.824;9.562;2023-11-19T02:35:27;11.50;86.70
12426;DHT22;6277;49.824;9.562;2023-11-19T02:37:54;11.40;86.70
12426;DHT22;6277;49.824;9.562;2023-11-19T02:40:20;11.40;86.60
12426;DHT22;6277;49.824;9.562;2023-11-19T02:42:49;11.40;86.60
12426;DHT22;6277;49.824;9.562;2023-11-19T02:45:15;11.30;86.70
12426;DHT22;6277;49.824;9.562;2023-11-19T02:47:41;11.30;86.80
12426;DHT22;6277;49.824;9.562;2023-11-19T02:50:10;11.20;87.00
12426;DHT22;6277;49.824;9.562;2023-11-19T02:52:42;11.20;87.20
12426;DHT22;6277;49.824;9.562;2023-11-19T02:55:11;11.20;87.50
12426;DHT22;6277;49.824;9.562;2023-11-19T02:57:41;11.20;87.60
12426;DHT22;6277;49.824;9.562;2023-11-19T03:00:19;11.30;87.80
12426;DHT22;6277;49.824;9.562;2023-11-19T03:02:49;11.30;87.90
12426;DHT22;6277;49.824;9.562;2023-11-19T03:05:23;11.30;88.00
12426;DHT22;6277;49.824;9.562;2023-11-19T03:07:49;11.40;88.20
12426;DHT22;6277;49.824;9.562;2023-11-19T03:10:14;11.40;88.20
12426;DHT22;6277;49.824;9.562;2023-11-19T03:12:41;11.50;88.30
12426;DHT22;6277;49.824;9.562;2023-11-19T03:15:07;11.50;88.30
12426;DHT22;6277;49.824;9.562;2023-11-19T03:17:38;11.60;88.40
12426;DHT22;6277;49.824;9.562;2023-11-19T03:20:09;11.60;88.40
12426;DHT22;6277;49.824;9.562;2023-11-19T03:22:39;11.70;88.30
12426;DHT22;6277;49.824;9.562;2023-11-19T03:25:07;11.70;88.30
12426;DHT22;6277;49.824;9.562;2023-11-19T03:27:37;11.80;88.40
12426;DHT22;6277;49.824;9.562;2023-11-19T03:30:07;11.80;88.30
12426;DHT22;6277;49.824;9.562;2023-11-19T03:32:34;11.90;88.30
12426;DHT22;6277;49.824;9.562;2023-11-19T03:35:04;11.90;88.10
12426;DHT22;6277;49.824;9.562;2023-11-19T03:37:30;12.00;88.20
12426;DHT22;6277;49.824;9.562;2023-11-19T03:39:57;12.00;88.10
12426;DHT22;6277;49.824;9.562;2023-11-19T03:42:27;12.00;87.90
12426;DHT22;6277;49.824;9.562;2023-11-19T03:44:53;12.00;88.50
12426;DHT22;6277;49.824;9.562;2023-11-19T03:47:19;12.10;88.00
12426;DHT22;6277;49.824;9.562;2023-11-19T03:49:49;12.10;87.90
12426;DHT22;6277;49.824;9.562;2023-11-19T03:52:14;12.10;87.90
12426;DHT22;6277;49.824;9.562;2023-11-19T03:54:40;12.10;87.90
12426;DHT22;6277;49.824;9.562;2023-11-19T03:57:05;12.20;88.00
12426;DHT22;6277;49.824;9.562;2023-11-19T03:59:31;12.20;88.00
12426;DHT22;6277;49.824;9.562;2023-11-19T04:01:57;12.20;87.90
12426;DHT22;6277;49.824;9.562;2023-11-19T04:04:26;12.20;88.00
12426;DHT22;6277;49.824;9.562;2023-11-19T04:06:52;12.30;88.00
12426;DHT22;6277;49.824;9.562;2023-11-19T04:09:18;12.30;88.00
12426;DHT22;6277;49.824;9.562;2023-11-19T04:11:43;12.30;88.10
12426;DHT22;6277;49.824;9.562;2023-11-19T04:14:12;12.30;88.10
12426;DHT22;6277;49.824;9.562;2023-11-19T04:16:38;12.40;88.30
12426;DHT22;6277;49.824;9.562;2023-11-19T04:19:04;12.40;88.30
12426;DHT22;6277;49.824;9.562;2023-11-19T04:21:29;12.40;88.30
12426;DHT22;6277;49.824;9.562;2023-11-19T04:23:56;12.40;88.30
12426;DHT22;6277;49.824;9.562;2023-11-19T04:26:21;12.50;88.40
12426;DHT22;6277;49.824;9.562;2023-11-19T04:28:47;12.50;88.50
12426;DHT22;6277;49.824;9.562;2023-11-19T04:31:17;12.50;88.50
12426;DHT22;6277;49.824;9.562;2023-11-19T04:33:43;12.60;88.60
12426;DHT22;6277;49.824;9.562;2023-11-19T04:36:09;12.60;88.50
12426;DHT22;6277;49.824;9.562;2023-11-19T04:38:35;12.60;88.60
12426;DHT22;6277;49.824;9.562;2023-11-19T04:41:01;12.60;88.70
12426;DHT22;6277;49.824;9.562;2023-11-19T04:43:26;12.60;88.70
12426;DHT22;6277;49.824;9.562;2023-11-19T04:45:52;12.70;88.90
12426;DHT22;6277;49.824;9.562;2023-11-19T04:48:18;12.70;89.00
12426;DHT22;6277;49.824;9.562;2023-11-19T04:50:43;12.70;89.10
12426;DHT22;6277;49.824;9.562;2023-11-19T04:53:09;12.70;89.20
12426;DHT22;6277;49.824;9.562;2023-11-19T04:55:34;12.70;89.30
12426;DHT22;6277;49.824;9.562;2023-11-19T04:58:00;12.80;89.50
12426;DHT22;6277;49.824;9.562;2023-11-19T05:00:25;12.80;89.60
12426;DHT22;6277;49.824;9.562;2023-11-19T05:02:51;12.80;89.70
12426;DHT22;6277;49.824;9.562;2023-11-19T05:05:17;12.80;89.80
12426;DHT22;6277;49.824;9.562;2023-11-19T05:07:43;12.90;89.90
12426;DHT22;6277;49.824;9.562;2023-11-19T05:10:08;12.90;89.80
12426;DHT22;6277;49.824;9.562;2023-11-19T05:12:34;12.90;89.80
12426;DHT22;6277;49.824;9.562;2023-11-19T05:14:59;13.00;89.90
12426;DHT22;6277;49.824;9.562;2023-11-19T05:17:25;13.00;89.90
12426;DHT22;6277;49.824;9.562;2023-11-19T05:19:51;13.00;89.90
12426;DHT22;6277;49.824;9.562;2023-11-19T05:22:17;13.00;90.00
12426;DHT22;6277;49.824;9.562;2023-11-19T05:24:42;13.00;90.00
12426;DHT22;6277;49.824;9.562;2023-11-19T05:27:08;13.00;90.00
12426;DHT22;6277;49.824;9.562;2023-11-19T05:29:34;13.00;90.10
12426;DHT22;6277;49.824;9.562;2023-11-19T05:31:59;13.00;90.10
12426;DHT22;6277;49.824;9.562;2023-11-19T05:34:25;13.10;90.20
12426;DHT22;6277;49.824;9.562;2023-11-19T05:36:51;13.10;90.30
12426;DHT22;6277;49.824;9.562;2023-11-19T05:39:17;13.10;90.30
12426;DHT22;6277;49.824;9.562;2023-11-19T05:41:44;13.10;90.30
12426;DHT22;6277;49.824;9.562;2023-11-19T05:44:09;13.10;90.40
12426;DHT22;6277;49.824;9.562;2023-11-19T05:46:35;13.20;90.40
12426;DHT22;6277;49.824;9.562;2023-11-19T05:49:05;13.20;90.40
12426;DHT22;6277;49.824;9.562;2023-11-19T05:51:31;13.20;90.50
12426;DHT22;6277;49.824;9.562;2023-11-19T05:53:56;13.20;90.50
12426;DHT22;6277;49.824;9.562;2023-11-19T05:56:22;13.30;90.50
12426;DHT22;6277;49.824;9.562;2023-11-19T05:58:48;13.30;90.50
12426;DHT22;6277;49.824;9.562;2023-11-19T06:01:14;13.30;90.60
12426;DHT22;6277;49.824;9.562;2023-11-19T06:03:40;13.30;90.60
12426;DHT22;6277;49.824;9.562;2023-11-19T06:06:06;13.40;90.60
12426;DHT22;6277;49.824;9.562;2023-11-19T06:08:32;13.40;90.60
12426;DHT22;6277;49.824;9.562;2023-11-19T06:10:57;13.40;90.60
12426;DHT22;6277;49.824;9.562;2023-11-19T06:13:23;13.50;90.70
12426;DHT22;6277;49.824;9.562;2023-11-19T06:15:50;13.50;90.90
12426;DHT22;6277;49.824;9.562;2023-11-19T06:18:16;13.50;90.70
12426;DHT22;6277;49.824;9.562;2023-11-19T06:20:42;13.50;90.70
12426;DHT22;6277;49.824;9.562;2023-11-19T06:23:07;13.60;90.70
12426;DHT22;6277;49.824;9.562;2023-11-19T06:25:33;13.60;90.70
12426;DHT22;6277;49.824;9.562;2023-11-19T06:28:00;13.60;90.70
12426;DHT22;6277;49.824;9.562;2023-11-19T06:30:26;13.70;90.80
12426;DHT22;6277;49.824;9.562;2023-11-19T06:32:53;13.70;90.80
12426;DHT22;6277;49.824;9.562;2023-11-19T06:35:19;13.70;90.80
12426;DHT22;6277;49.824;9.562;2023-11-19T06:37:44;13.70;90.80
12426;DHT22;6277;49.824;9.562;2023-11-19T06:40:10;13.80;90.80
12426;DHT22;6277;49.824;9.562;2023-11-19T06:42:37;13.80;90.80
12426;DHT22;6277;49.824;9.562;2023-11-19T06:45:04;13.80;90.80
12426;DHT22;6277;49.824;9.562;2023-11-19T06:47:30;13.80;90.70
12426;DHT22;6277;49.824;9.562;2023-11-19T06:49:55;13.90;90.80
12426;DHT22;6277;49.824;9.562;2023-11-19T06:52:21;13.90;90.70
12426;DHT22;6277;49.824;9.562;2023-11-19T06:54:47;13.90;90.80
12426;DHT22;6277;49.824;9.562;2023-11-19T06:57:13;13.90;90.80
12426;DHT22;6277;49.824;9.562;2023-11-19T06:59:39;13.90;90.90
12426;DHT22;6277;49.824;9.562;2023-11-19T07:02:05;13.90;90.90
12426;DHT22;6277;49.824;9.562;2023-11-19T07:04:32;13.90;90.90
12426;DHT22;6277;49.824;9.562;2023-11-19T07:06:58;13.90;90.90
12426;DHT22;6277;49.824;9.562;2023-11-19T07:09:25;14.00;91.00
12426;DHT22;6277;49.824;9.562;2023-11-19T07:11:51;14.00;91.00
12426;DHT22;6277;49.824;9.562;2023-11-19T07:14:18;14.00;91.00
12426;DHT22;6277;49.824;9.562;2023-11-19T07:16:44;14.00;91.00
12426;DHT22;6277;49.824;9.562;2023-11-19T07:19:10;14.00;91.00
12426;DHT22;6277;49.824;9.562;2023-11-19T07:21:36;14.10;91.10
12426;DHT22;6277;49.824;9.562;2023-11-19T07:24:09;14.10;91.10
12426;DHT22;6277;49.824;9.562;2023-11-19T07:26:36;14.10;91.10
12426;DHT22;6277;49.824;9.562;2023-11-19T07:29:05;14.10;91.10
12426;DHT22;6277;49.824;9.562;2023-11-19T07:31:32;14.10;91.20
12426;DHT22;6277;49.824;9.562;2023-11-19T07:33:58;14.10;91.20
12426;DHT22;6277;49.824;9.562;2023-11-19T07:36:23;14.20;91.30
12426;DHT22;6277;49.824;9.562;2023-11-19T07:38:49;14.20;91.30
12426;DHT22;6277;49.824;9.562;2023-11-19T07:41:15;14.20;91.40
12426;DHT22;6277;49.824;9.562;2023-11-19T07:43:43;14.20;91.40
12426;DHT22;6277;49.824;9.562;2023-11-19T07:46:13;14.30;91.40
12426;DHT22;6277;49.824;9.562;2023-11-19T07:48:41;14.30;91.40
12426;DHT22;6277;49.824;9.562;2023-11-19T07:51:07;14.30;91.40
12426;DHT22;6277;49.824;9.562;2023-11-19T07:53:33;14.40;91.40
12426;DHT22;6277;49.824;9.562;2023-11-19T07:55:59;14.40;91.40
12426;DHT22;6277;49.824;9.562;2023-11-19T07:58:27;14.40;91.40
12426;DHT22;6277;49.824;9.562;2023-11-19T08:00:53;14.40;91.40
12426;DHT22;6277;49.824;9.562;2023-11-19T08:03:18;14.40;91.40
12426;DHT22;6277;49.824;9.562;2023-11-19T08:05:44;14.40;91.40
12426;DHT22;6277;49.824;9.562;2023-11-19T08:08:10;14.40;91.50
12426;DHT22;6277;49.824;9.562;2023-11-19T08:10:35;14.40;91.50
12426;DHT22;6277;49.824;9.562;2023-11-19T08:13:01;14.50;91.60
12426;DHT22;6277;49.824;9.562;2023-11-19T08:15:27;14.50;91.80
12426;DHT22;6277;49.824;9.562;2023-11-19T08:17:52;14.50;91.90
12426;DHT22;6277;49.824;9.562;2023-11-19T08:20:18;14.60;91.90
12426;DHT22;6277;49.824;9.562;2023-11-19T08:22:44;14.60;91.90
12426;DHT22;6277;49.824;9.562;2023-11-19T08:25:09;14.70;91.80
12426;DHT22;6277;49.824;9.562;2023-11-19T08:27:35;14.70;91.80
12426;DHT22;6277;49.824;9.562;2023-11-19T08:30:01;14.80;91.80
12426;DHT22;6277;49.824;9.562;2023-11-19T08:32:27;14.80;92.00
12426;DHT22;6277;49.824;9.562;2023-11-19T08:34:53;14.80;92.00
12426;DHT22;6277;49.824;9.562;2023-11-19T08:37:19;14.90;92.10
12426;DHT22;6277;49.824;9.562;2023-11-19T08:39:50;15.00;92.10
12426;DHT22;6277;49.824;9.562;2023-11-19T08:42:19;15.10;92.00
12426;DHT22;6277;49.824;9.562;2023-11-19T08:44:49;15.20;92.20
12426;DHT22;6277;49.824;9.562;2023-11-19T08:47:16;15.20;92.10
12426;DHT22;6277;49.824;9.562;2023-11-19T08:49:43;15.30;92.20
12426;DHT22;6277;49.824;9.562;2023-11-19T08:52:09;15.40;92.20
12426;DHT22;6277;49.824;9.562;2023-11-19T08:54:36;15.40;92.20
12426;DHT22;6277;49.824;9.562;2023-11-19T08:57:02;15.50;92.40
12426;DHT22;6277;49.824;9.562;2023-11-19T08:59:28;15.60;92.00
12426;DHT22;6277;49.824;9.562;2023-11-19T09:01:54;15.70;91.90
12426;DHT22;6277;49.824;9.562;2023-11-19T09:04:20;15.70;91.60
12426;DHT22;6277;49.824;9.562;2023-11-19T09:06:48;15.70;91.50
12426;DHT22;6277;49.824;9.562;2023-11-19T09:09:14;15.70;91.40
12426;DHT22;6277;49.824;9.562;2023-11-19T09:11:39;15.80;91.30
12426;DHT22;6277;49.824;9.562;2023-11-19T09:14:05;15.80;91.30
12426;DHT22;6277;49.824;9.562;2023-11-19T09:16:30;15.80;91.20
12426;DHT22;6277;49.824;9.562;2023-11-19T09:18:56;15.80;91.20
12426;DHT22;6277;49.824;9.562;2023-11-19T09:21:23;15.80;91.40
12426;DHT22;6277;49.824;9.562;2023-11-19T09:23:48;15.90;91.30
12426;DHT22;6277;49.824;9.562;2023-11-19T09:26:14;15.90;91.40
12426;DHT22;6277;49.824;9.562;2023-11-19T09:28:40;16.00;91.40
12426;DHT22;6277;49.824;9.562;2023-11-19T09:31:18;16.00;91.40
12426;DHT22;6277;49.824;9.562;2023-11-19T09:33:44;16.10;91.00
12426;DHT22;6277;49.824;9.562;2023-11-19T09:36:12;16.20;91.20
12426;DHT22;6277;49.824;9.562;2023-11-19T09:38:39;16.20;90.90
12426;DHT22;6277;49.824;9.562;2023-11-19T09:41:05;16.30;91.00
12426;DHT22;6277;49.824;9.562;2023-11-19T09:43:35;16.30;90.90
12426;DHT22;6277;49.824;9.562;2023-11-19T09:46:09;16.40;90.90
12426;DHT22;6277;49.824;9.562;2023-11-19T09:48:38;16.40;90.80
12426;DHT22;6277;49.824;9.562;2023-11-19T09:51:06;16.50;90.90
12426;DHT22;6277;49.824;9.562;2023-11-19T09:53:32;16.50;90.60
12426;DHT22;6277;49.824;9.562;2023-11-19T09:56:00;16.50;90.10
12426;DHT22;6277;49.824;9.562;2023-11-19T09:58:26;16.50;89.90
12426;DHT22;6277;49.824;9.562;2023-11-19T10:00:52;16.60;90.10
12426;DHT22;6277;49.824;9.562;2023-11-19T10:03:17;16.60;89.80
12426;DHT22;6277;49.824;9.562;2023-11-19T10:05:43;16.60;89.50
12426;DHT22;6277;49.824;9.562;2023-11-19T10:08:09;16.60;89.60
12426;DHT22;6277;49.824;9.562;2023-11-19T10:10:36;16.60;89.50
12426;DHT22;6277;49.824;9.562;2023-11-19T10:13:03;16.60;89.60
12426;DHT22;6277;49.824;9.562;2023-11-19T10:15:36;16.60;89.30
12426;DHT22;6277;49.824;9.562;2023-11-19T10:18:02;16.60;88.90
12426;DHT22;6277;49.824;9.562;2023-11-19T10:20:27;16.60;88.60
12426;DHT22;6277;49.824;9.562;2023-11-19T10:22:56;16.60;88.60
12426;DHT22;6277;49.824;9.562;2023-11-19T10:25:25;16.60;88.20
12426;DHT22;6277;49.824;9.562;2023-11-19T10:27:51;16.50;88.80
12426;DHT22;6277;49.824;9.562;2023-11-19T10:30:21;16.50;89.10
12426;DHT22;6277;49.824;9.562;2023-11-19T10:33:06;16.50;88.80
12426;DHT22;6277;49.824;9.562;2023-11-19T10:35:36;16.50;88.10
12426;DHT22;6277;49.824;9.562;2023-11-19T10:38:15;16.50;88.50
12426;DHT22;6277;49.824;9.562;2023-11-19T10:40:41;16.60;89.00
12426;DHT22;6277;49.824;9.562;2023-11-19T10:43:07;16.60;89.60
12426;DHT22;6277;49.824;9.562;2023-11-19T10:45:36;16.70;89.70
12426;DHT22;6277;49.824;9.562;2023-11-19T10:48:03;16.70;89.60
12426;DHT22;6277;49.824;9.562;2023-11-19T10:50:36;16.80;89.60
12426;DHT22;6277;49.824;9.562;2023-11-19T10:53:03;16.90;89.30
12426;DHT22;6277;49.824;9.562;2023-11-19T10:55:33;16.90;89.30
12426;DHT22;6277;49.824;9.562;2023-11-19T10:58:07;16.90;89.10
12426;DHT22;6277;49.824;9.562;2023-11-19T11:00:50;17.00;88.40
12426;DHT22;6277;49.824;9.562;2023-11-19T11:03:20;16.90;87.40
12426;DHT22;6277;49.824;9.562;2023-11-19T11:05:51;17.00;87.50
12426;DHT22;6277;49.824;9.562;2023-11-19T11:08:18;17.00;87.10
12426;DHT22;6277;49.824;9.562;2023-11-19T11:10:57;17.00;88.20
12426;DHT22;6277;49.824;9.562;2023-11-19T11:13:26;17.00;87.10
12426;DHT22;6277;49.824;9.562;2023-11-19T11:15:56;17.00;88.10
12426;DHT22;6277;49.824;9.562;2023-11-19T11:18:23;17.10;88.50
12426;DHT22;6277;49.824;9.562;2023-11-19T11:20:54;17.20;88.40
12426;DHT22;6277;49.824;9.562;2023-11-19T11:29:02;17.40;87.30
12426;DHT22;6277;49.824;9.562;2023-11-19T11:37:25;17.40;85.90
12426;DHT22;6277;49.824;9.562;2023-11-19T11:39:53;17.40;85.60
12426;DHT22;6277;49.824;9.562;2023-11-19T11:50:14;17.30;83.60
12426;DHT22;6277;49.824;9.562;2023-11-19T11:55:28;17.30;82.80
12426;DHT22;6277;49.824;9.562;2023-11-19T11:57:55;17.30;84.40
12426;DHT22;6277;49.824;9.562;2023-11-19T12:00:30;17.30;84.50
12426;DHT22;6277;49.824;9.562;2023-11-19T12:02:57;17.30;82.30
12426;DHT22;6277;49.824;9.562;2023-11-19T12:05:23;17.30;83.30
12426;DHT22;6277;49.824;9.562;2023-11-19T12:07:55;17.30;84.10
12426;DHT22;6277;49.824;9.562;2023-11-19T12:10:21;17.30;83.10
12426;DHT22;6277;49.824;9.562;2023-11-19T12:12:47;17.30;84.10
12426;DHT22;6277;49.824;9.562;2023-11-19T12:15:13;17.30;84.10
12426;DHT22;6277;49.824;9.562;2023-11-19T12:17:44;17.30;84.00
12426;DHT22;6277;49.824;9.562;2023-11-19T12:20:14;17.30;83.40
12426;DHT22;6277;49.824;9.562;2023-11-19T12:22:42;17.30;83.20
12426;DHT22;6277;49.824;9.562;2023-11-19T12:25:09;17.30;83.10
12426;DHT22;6277;49.824;9.562;2023-11-19T12:27:36;17.30;82.30
12426;DHT22;6277;49.824;9.562;2023-11-19T12:30:03;17.20;82.10
12426;DHT22;6277;49.824;9.562;2023-11-19T12:32:40;17.20;81.40
12426;DHT22;6277;49.824;9.562;2023-11-19T12:35:07;17.20;81.50
12426;DHT22;6277;49.824;9.562;2023-11-19T12:40:25;17.20;81.00
12426;DHT22;6277;49.824;9.562;2023-11-19T12:42:51;17.20;80.40
12426;DHT22;6277;49.824;9.562;2023-11-19T12:45:18;17.20;81.00
12426;DHT22;6277;49.824;9.562;2023-11-19T12:47:45;17.10;81.40
12426;DHT22;6277;49.824;9.562;2023-11-19T12:50:15;17.10;80.20
12426;DHT22;6277;49.824;9.562;2023-11-19T12:52:43;17.10;81.00
12426;DHT22;6277;49.824;9.562;2023-11-19T12:55:25;17.00;80.30
12426;DHT22;6277;49.824;9.562;2023-11-19T12:57:52;17.00;80.20
12426;DHT22;6277;49.824;9.562;2023-11-19T13:00:25;17.00;80.20
12426;DHT22;6277;49.824;9.562;2023-11-19T13:02:55;16.90;80.60
12426;DHT22;6277;49.824;9.562;2023-11-19T13:10:26;16.80;80.00
12426;DHT22;6277;49.824;9.562;2023-11-19T13:13:06;16.80;80.30
12426;DHT22;6277;49.824;9.562;2023-11-19T13:15:33;16.80;80.00
12426;DHT22;6277;49.824;9.562;2023-11-19T13:17:59;16.70;80.50
12426;DHT22;6277;49.824;9.562;2023-11-19T13:20:25;16.70;80.10
12426;DHT22;6277;49.824;9.562;2023-11-19T13:23:04;16.70;80.10
12426;DHT22;6277;49.824;9.562;2023-11-19T13:25:30;16.70;79.30
12426;DHT22;6277;49.824;9.562;2023-11-19T13:27:57;16.70;79.80
12426;DHT22;6277;49.824;9.562;2023-11-19T13:30:23;16.70;79.20
12426;DHT22;6277;49.824;9.562;2023-11-19T13:32:50;16.70;78.70
12426;DHT22;6277;49.824;9.562;2023-11-19T13:35:16;16.60;78.40
12426;DHT22;6277;49.824;9.562;2023-11-19T13:37:43;16.60;77.90
12426;DHT22;6277;49.824;9.562;2023-11-19T13:40:09;16.60;77.80
12426;DHT22;6277;49.824;9.562;2023-11-19T13:42:44;16.60;77.80
12426;DHT22;6277;49.824;9.562;2023-11-19T13:45:14;16.50;77.40
12426;DHT22;6277;49.824;9.562;2023-11-19T13:47:41;16.50;77.90
12426;DHT22;6277;49.824;9.562;2023-11-19T13:50:12;16.50;77.60
12426;DHT22;6277;49.824;9.562;2023-11-19T13:52:39;16.40;77.30
12426;DHT22;6277;49.824;9.562;2023-11-19T13:55:06;16.40;77.50
12426;DHT22;6277;49.824;9.562;2023-11-19T13:57:33;16.40;77.40
12426;DHT22;6277;49.824;9.562;2023-11-19T13:59:59;16.40;77.30
12426;DHT22;6277;49.824;9.562;2023-11-19T14:02:25;16.40;77.70
12426;DHT22;6277;49.824;9.562;2023-11-19T14:04:50;16.40;77.70
12426;DHT22;6277;49.824;9.562;2023-11-19T14:07:16;16.40;77.50
12426;DHT22;6277;49.824;9.562;2023-11-19T14:09:42;16.30;77.20
12426;DHT22;6277;49.824;9.562;2023-11-19T14:12:08;16.30;77.10
12426;DHT22;6277;49.824;9.562;2023-11-19T14:14:35;16.40;77.20
12426;DHT22;6277;49.824;9.562;2023-11-19T14:17:01;16.30;76.80
12426;DHT22;6277;49.824;9.562;2023-11-19T14:19:28;16.30;76.10
12426;DHT22;6277;49.824;9.562;2023-11-19T14:21:54;16.30;76.40
12426;DHT22;6277;49.824;9.562;2023-11-19T14:24:19;16.20;75.80
12426;DHT22;6277;49.824;9.562;2023-11-19T14:26:46;16.30;75.90
12426;DHT22;6277;49.824;9.562;2023-11-19T14:29:12;16.20;75.50
12426;DHT22;6277;49.824;9.562;2023-11-19T14:31:38;16.20;75.20
12426;DHT22;6277;49.824;9.562;2023-11-19T14:34:05;16.20;75.80
12426;DHT22;6277;49.824;9.562;2023-11-19T14:36:30;16.10;75.50
12426;DHT22;6277;49.824;9.562;2023-11-19T14:38:56;16.10;75.50
12426;DHT22;6277;49.824;9.562;2023-11-19T14:41:23;16.10;75.50
12426;DHT22;6277;49.824;9.562;2023-11-19T14:43:48;16.00;75.10
12426;DHT22;6277;49.824;9.562;2023-11-19T14:46:14;16.00;75.20
12426;DHT22;6277;49.824;9.562;2023-11-19T14:48:39;16.00;75.20
12426;DHT22;6277;49.824;9.562;2023-11-19T14:51:05;16.00;75.60
12426;DHT22;6277;49.824;9.562;2023-11-19T14:53:30;16.00;75.70
12426;DHT22;6277;49.824;9.562;2023-11-19T14:55:56;16.00;75.60
12426;DHT22;6277;49.824;9.562;2023-11-19T14:58:22;16.00;74.90
12426;DHT22;6277;49.824;9.562;2023-11-19T15:00:47;16.00;74.70
12426;DHT22;6277;49.824;9.562;2023-11-19T15:03:14;16.00;74.20
12426;DHT22;6277;49.824;9.562;2023-11-19T15:05:41;16.10;74.10
12426;DHT22;6277;49.824;9.562;2023-11-19T15:08:07;16.00;73.90
12426;DHT22;6277;49.824;9.562;2023-11-19T15:10:32;16.10;74.30
12426;DHT22;6277;49.824;9.562;2023-11-19T15:12:58;16.10;74.30
12426;DHT22;6277;49.824;9.562;2023-11-19T15:15:23;16.10;74.10
12426;DHT22;6277;49.824;9.562;2023-11-19T15:17:49;16.00;74.00
12426;DHT22;6277;49.824;9.562;2023-11-19T15:20:14;16.00;74.10
12426;DHT22;6277;49.824;9.562;2023-11-19T15:22:43;16.00;74.30
12426;DHT22;6277;49.824;9.562;2023-11-19T15:25:09;16.00;74.00
12426;DHT22;6277;49.824;9.562;2023-11-19T15:27:36;15.90;73.70
12426;DHT22;6277;49.824;9.562;2023-11-19T15:30:02;15.90;73.90
12426;DHT22;6277;49.824;9.562;2023-11-19T15:32:28;15.80;73.70
12426;DHT22;6277;49.824;9.562;2023-11-19T15:34:59;15.90;73.80
12426;DHT22;6277;49.824;9.562;2023-11-19T15:37:25;15.80;74.00
12426;DHT22;6277;49.824;9.562;2023-11-19T15:39:50;15.80;74.00
12426;DHT22;6277;49.824;9.562;2023-11-19T15:42:17;15.70;73.60
12426;DHT22;6277;49.824;9.562;2023-11-19T15:44:42;15.70;73.80
12426;DHT22;6277;49.824;9.562;2023-11-19T15:47:09;15.60;73.70
12426;DHT22;6277;49.824;9.562;2023-11-19T15:49:35;15.60;73.70
12426;DHT22;6277;49.824;9.562;2023-11-19T15:52:02;15.60;73.70
12426;DHT22;6277;49.824;9.562;2023-11-19T15:54:27;15.50;73.50
12426;DHT22;6277;49.824;9.562;2023-11-19T15:56:53;15.50;73.40
12426;DHT22;6277;49.824;9.562;2023-11-19T15:59:18;15.40;73.40
12426;DHT22;6277;49.824;9.562;2023-11-19T16:01:46;15.40;73.60
12426;DHT22;6277;49.824;9.562;2023-11-19T16:04:11;15.40;73.30
12426;DHT22;6277;49.824;9.562;2023-11-19T16:06:37;15.30;73.50
12426;DHT22;6277;49.824;9.562;2023-11-19T16:09:03;15.30;73.40
12426;DHT22;6277;49.824;9.562;2023-11-19T16:11:28;15.40;73.60
12426;DHT22;6277;49.824;9.562;2023-11-19T16:13:54;15.30;73.40
12426;DHT22;6277;49.824;9.562;2023-11-19T16:16:19;15.30;73.30